createdAt,value
2018-12-06T00:01:06.987Z,5.80
2018-12-06T00:03:38.462Z,8.60
2018-12-06T00:06:18.686Z,4.63
2018-12-06T00:08:58.667Z,4.97
2018-12-06T00:11:39.399Z,7.53
2018-12-06T00:14:10.635Z,5.10
2018-12-06T00:16:46.383Z,6.27
2018-12-06T00:19:27.213Z,8.60
2018-12-06T00:22:07.185Z,6.20
2018-12-06T00:24:37.699Z,6.77
2018-12-06T00:27:11.910Z,7.37
2018-12-06T00:29:44.722Z,5.43
2018-12-06T00:32:25.083Z,6.03
2018-12-06T00:34:56.467Z,5.53
2018-12-06T00:37:37.005Z,6.60
2018-12-06T00:40:11.202Z,6.90
2018-12-06T00:42:51.800Z,8.13
2018-12-06T00:45:32.586Z,7.77
2018-12-06T00:48:12.698Z,4.97
2018-12-06T00:50:53.342Z,6.30
2018-12-06T00:53:33.353Z,5.83
2018-12-06T00:56:14.101Z,4.53
2018-12-06T00:58:47.639Z,6.63
2018-12-06T01:01:17.061Z,8.77
2018-12-06T01:03:48.199Z,5.23
2018-12-06T01:06:28.619Z,7.07
2018-12-06T01:09:08.571Z,6.00
2018-12-06T01:11:49.434Z,4.00
2018-12-06T01:14:25.630Z,6.40
2018-12-06T01:17:05.755Z,5.53
2018-12-06T01:19:46.602Z,6.13
2018-12-06T01:22:23.786Z,6.30
2018-12-06T01:24:54.876Z,3.97
2018-12-06T01:27:28.456Z,5.13
2018-12-06T01:30:05.507Z,5.27
2018-12-06T01:32:45.779Z,5.80
2018-12-06T01:35:17.128Z,6.27
2018-12-06T01:37:57.451Z,7.67
2018-12-06T01:40:38.323Z,4.93
2018-12-06T01:43:19.144Z,7.07
2018-12-06T01:45:53.391Z,5.13
2018-12-06T01:48:22.640Z,7.10
2018-12-06T01:51:00.285Z,5.77
2018-12-06T01:53:41.025Z,6.80
2018-12-06T01:56:14.379Z,6.80
2018-12-06T01:58:54.947Z,5.47
2018-12-06T02:01:24.271Z,6.30
2018-12-06T02:03:55.328Z,4.73
2018-12-06T02:06:28.912Z,6.27
2018-12-06T02:09:10.293Z,5.60
2018-12-06T02:11:50.343Z,9.63
2018-12-06T02:14:20.992Z,7.43
2018-12-06T02:16:54.807Z,8.17
2018-12-06T02:19:26.046Z,9.13
2018-12-06T02:22:06.467Z,6.90
2018-12-06T02:24:38.915Z,7.87
2018-12-06T02:27:12.675Z,6.73
2018-12-06T02:29:54.295Z,8.33
2018-12-06T02:32:34.354Z,6.40
2018-12-06T02:35:05.887Z,7.50
2018-12-06T02:37:46.107Z,6.63
2018-12-06T02:40:26.914Z,6.80
2018-12-06T02:43:07.762Z,9.10
2018-12-06T02:45:38.431Z,8.90
2018-12-06T02:48:12.101Z,6.93
2018-12-06T02:50:52.475Z,7.93
2018-12-06T02:53:33.253Z,6.00
2018-12-06T02:56:07.283Z,7.70
2018-12-06T02:58:38.548Z,8.47
2018-12-06T03:01:18.864Z,9.57
2018-12-06T03:03:48.308Z,7.17
2018-12-06T03:06:28.994Z,7.10
2018-12-06T03:09:09.113Z,9.53
2018-12-06T03:11:49.095Z,8.90
2018-12-06T03:14:19.643Z,7.80
2018-12-06T03:16:53.407Z,8.90
2018-12-06T03:19:34.152Z,8.70
2018-12-06T03:22:14.633Z,6.73
2018-12-06T03:24:47.071Z,10.40
2018-12-06T03:27:27.732Z,9.47
2018-12-06T03:30:08.117Z,7.43
2018-12-06T03:32:42.175Z,10.27
2018-12-06T03:35:13.392Z,7.77
2018-12-06T03:37:44.276Z,9.03
2018-12-06T03:40:24.507Z,10.60
2018-12-06T03:43:05.299Z,9.47
2018-12-06T03:45:36.793Z,13.23
2018-12-06T03:48:10.200Z,9.73
2018-12-06T03:50:50.879Z,9.87
2018-12-06T03:53:30.835Z,11.10
2018-12-06T03:56:12.213Z,11.63
2018-12-06T03:58:43.402Z,12.73
2018-12-06T04:01:23.787Z,11.77
2018-12-06T04:03:55.123Z,10.63
2018-12-06T04:06:35.682Z,12.50
2018-12-06T04:09:06.843Z,14.03
2018-12-06T04:11:37.415Z,12.13
2018-12-06T04:14:18.129Z,14.43
2018-12-06T04:16:58.956Z,13.07
2018-12-06T04:19:32.392Z,12.17
2018-12-06T04:22:12.987Z,15.70
2018-12-06T04:24:48.457Z,13.50
2018-12-06T04:27:28.836Z,10.83
2018-12-06T04:30:02.355Z,15.40
2018-12-06T04:32:42.873Z,14.43
2018-12-06T04:35:23.790Z,14.87
2018-12-06T04:38:03.708Z,13.73
2018-12-06T04:40:35.071Z,17.67
2018-12-06T04:43:15.432Z,12.93
2018-12-06T04:45:46.015Z,15.27
2018-12-06T04:48:21.712Z,14.80
2018-12-06T04:51:02.637Z,13.77
2018-12-06T04:53:36.486Z,12.77
2018-12-06T04:56:17.075Z,13.93
2018-12-06T04:58:57.904Z,12.37
2018-12-06T05:01:29.378Z,12.23
2018-12-06T05:04:00.471Z,12.80
2018-12-06T05:06:41.007Z,16.13
2018-12-06T05:09:21.023Z,13.70
2018-12-06T05:12:01.901Z,14.30
2018-12-06T05:14:41.866Z,13.97
2018-12-06T05:17:22.068Z,13.50
2018-12-06T05:20:02.834Z,13.23
2018-12-06T05:22:42.891Z,12.30
2018-12-06T05:25:13.423Z,14.13
2018-12-06T05:27:42.219Z,11.93
2018-12-06T05:30:11.147Z,12.53
2018-12-06T05:32:51.555Z,15.93
2018-12-06T05:35:22.596Z,12.53
2018-12-06T05:38:02.919Z,14.30
2018-12-06T05:40:43.016Z,14.73
2018-12-06T05:43:22.983Z,15.10
2018-12-06T05:46:03.616Z,15.03
2018-12-06T05:48:43.531Z,16.13
2018-12-06T05:51:23.641Z,17.33
2018-12-06T05:53:54.159Z,17.90
2018-12-06T05:56:35.899Z,17.40
2018-12-06T05:59:16.211Z,17.03
2018-12-06T06:01:56.160Z,14.87
2018-12-06T06:04:27.584Z,17.30
2018-12-06T06:07:07.988Z,14.13
2018-12-06T06:09:48.855Z,17.23
2018-12-06T06:12:28.848Z,16.30
2018-12-06T06:15:09.671Z,17.23
2018-12-06T06:17:43.807Z,17.97
2018-12-06T06:20:17.946Z,16.27
2018-12-06T06:22:58.310Z,17.90
2018-12-06T06:25:29.907Z,14.07
2018-12-06T06:28:10.355Z,15.43
2018-12-06T06:30:51.198Z,14.77
2018-12-06T06:33:24.487Z,18.73
2018-12-06T06:36:04.967Z,15.47
2018-12-06T06:38:38.216Z,16.23
2018-12-06T06:41:18.647Z,19.13
2018-12-06T06:43:49.166Z,16.10
2018-12-06T06:46:29.394Z,18.77
2018-12-06T06:49:02.879Z,17.50
2018-12-06T06:51:43.764Z,15.47
2018-12-06T06:54:24.252Z,16.70
2018-12-06T06:57:04.559Z,19.53
2018-12-06T06:59:35.211Z,18.37
2018-12-06T07:02:15.783Z,19.43
2018-12-06T07:04:47.104Z,18.87
2018-12-06T07:07:20.856Z,20.27
2018-12-06T07:09:54.556Z,17.13
2018-12-06T07:12:35.108Z,19.23
2018-12-06T07:15:05.865Z,18.03
2018-12-06T07:17:46.133Z,18.33
2018-12-06T07:20:27.013Z,19.23
2018-12-06T07:25:51.000Z,17.80
2018-12-06T07:28:31.432Z,19.40
2018-12-06T07:31:11.443Z,19.33
2018-12-06T07:33:44.763Z,18.57
2018-12-06T07:36:25.371Z,21.33
2018-12-06T07:39:06.167Z,17.33
2018-12-06T07:41:47.048Z,17.77
2018-12-06T07:44:21.187Z,21.13
2018-12-06T07:46:52.346Z,16.80
2018-12-06T07:49:32.869Z,19.97
2018-12-06T07:52:13.539Z,16.83
2018-12-06T07:54:44.235Z,21.00
2018-12-06T07:57:24.385Z,16.80
2018-12-06T08:00:05.127Z,19.23
2018-12-06T08:02:40.435Z,18.30
2018-12-06T08:05:11.567Z,21.90
2018-12-06T08:07:51.996Z,17.63
2018-12-06T08:10:26.163Z,17.70
2018-12-06T08:12:55.379Z,19.87
2018-12-06T08:15:26.399Z,19.47
2018-12-06T08:17:55.727Z,21.67
2018-12-06T08:20:36.160Z,19.47
2018-12-06T08:23:05.503Z,18.87
2018-12-06T08:25:36.551Z,18.90
2018-12-06T08:28:10.428Z,16.87
2018-12-06T08:30:50.895Z,20.67
2018-12-06T08:33:31.764Z,19.87
2018-12-06T08:36:11.701Z,18.57
2018-12-06T08:38:42.323Z,18.20
2018-12-06T08:41:22.760Z,19.80
2018-12-06T08:43:53.298Z,23.13
2018-12-06T08:46:33.628Z,19.67
2018-12-06T08:49:07.704Z,19.90
2018-12-06T08:51:36.887Z,20.63
2018-12-06T08:54:08.203Z,19.10
2018-12-06T08:56:48.571Z,23.27
2018-12-06T08:59:17.695Z,17.13
2018-12-06T09:01:58.012Z,20.30
2018-12-06T09:04:29.475Z,18.17
2018-12-06T09:07:03.386Z,22.53
2018-12-06T09:09:32.616Z,22.03
2018-12-06T09:12:06.157Z,20.13
2018-12-06T09:14:37.507Z,21.40
2018-12-06T09:17:17.991Z,19.67
2018-12-06T09:19:58.840Z,22.43
2018-12-06T09:22:38.807Z,19.33
2018-12-06T09:25:10.211Z,22.80
2018-12-06T09:27:52.044Z,19.73
2018-12-06T09:30:21.175Z,20.40
2018-12-06T09:33:01.612Z,21.33
2018-12-06T09:35:32.127Z,20.03
2018-12-06T09:38:05.927Z,20.87
2018-12-06T09:40:46.323Z,19.50
2018-12-06T09:43:20.299Z,21.87
2018-12-06T09:46:00.976Z,20.63
2018-12-06T09:48:37.064Z,20.27
2018-12-06T09:51:17.747Z,20.17
2018-12-06T09:53:49.271Z,20.07
2018-12-06T09:56:29.597Z,21.93
2018-12-06T09:59:09.576Z,21.47
2018-12-06T10:01:49.724Z,23.07
2018-12-06T10:04:20.271Z,25.70
2018-12-06T10:07:00.770Z,23.07
2018-12-06T10:09:31.396Z,24.47
2018-12-06T10:12:11.838Z,24.83
2018-12-06T10:14:51.824Z,25.03
2018-12-06T10:17:31.960Z,23.53
2018-12-06T10:20:12.727Z,24.77
2018-12-06T10:22:52.748Z,25.33
2018-12-06T10:25:24.374Z,26.87
2018-12-06T10:28:04.712Z,28.83
2018-12-06T10:30:45.368Z,24.63
2018-12-06T10:33:14.811Z,27.30
2018-12-06T10:35:45.507Z,24.13
2018-12-06T10:38:14.536Z,24.40
2018-12-06T10:40:55.107Z,27.60
2018-12-06T10:43:35.880Z,23.87
2018-12-06T10:46:18.591Z,26.43
2018-12-06T10:48:58.689Z,22.60
2018-12-06T10:51:38.806Z,24.30
2018-12-06T10:54:13.011Z,26.73
2018-12-06T10:56:53.724Z,22.70
2018-12-06T10:59:24.247Z,24.27
2018-12-06T11:02:06.595Z,27.13
2018-12-06T11:04:46.652Z,26.13
2018-12-06T11:07:27.278Z,25.83
2018-12-06T11:10:00.752Z,24.47
2018-12-06T11:12:41.147Z,24.63
2018-12-06T11:15:11.684Z,22.83
2018-12-06T11:17:52.044Z,26.80
2018-12-06T11:20:32.048Z,25.57
2018-12-06T11:23:43.261Z,26.53
2018-12-06T11:26:24.867Z,28.60
2018-12-06T11:29:05.351Z,28.97
2018-12-06T11:31:45.461Z,26.00
2018-12-06T11:34:16.875Z,27.67
2018-12-06T11:36:57.391Z,26.13
2018-12-06T11:39:37.415Z,28.07
2018-12-06T11:42:10.776Z,25.60
2018-12-06T11:44:44.543Z,26.40
2018-12-06T11:47:25.067Z,24.33
2018-12-06T11:50:05.890Z,24.90
2018-12-06T11:52:45.959Z,32.00
2018-12-06T11:55:18.485Z,29.17
2018-12-06T11:57:58.643Z,30.93
2018-12-06T12:00:38.848Z,30.57
2018-12-06T12:03:19.678Z,24.30
2018-12-06T12:05:50.263Z,25.73
2018-12-06T12:08:19.571Z,25.87
2018-12-06T12:10:53.372Z,25.60
2018-12-06T12:13:24.382Z,31.23
2018-12-06T12:16:04.776Z,30.00
2018-12-06T12:18:35.280Z,28.77
2018-12-06T12:21:08.875Z,24.90
2018-12-06T12:23:40.207Z,29.97
2018-12-06T12:26:12.226Z,32.57
2018-12-06T12:28:52.612Z,29.30
2018-12-06T12:31:33.355Z,33.83
2018-12-06T12:34:13.256Z,35.90
2018-12-06T12:36:53.987Z,32.77
2018-12-06T12:39:23.407Z,30.30
2018-12-06T12:42:03.759Z,36.53
2018-12-06T12:44:35.156Z,30.07
2018-12-06T12:47:04.179Z,25.57
2018-12-06T12:49:44.404Z,29.57
2018-12-06T12:52:13.628Z,28.73
2018-12-06T12:54:45.755Z,27.37
2018-12-06T12:57:26.331Z,26.77
2018-12-06T13:00:00.524Z,26.67
2018-12-06T13:02:41.204Z,25.60
2018-12-06T13:05:11.771Z,24.73
2018-12-06T13:07:40.668Z,25.70
2018-12-06T13:10:21.104Z,25.17
2018-12-06T13:12:51.605Z,24.17
2018-12-06T13:15:22.557Z,22.37
2018-12-06T13:18:03.096Z,19.90
2018-12-06T13:20:43.052Z,20.93
2018-12-06T13:23:23.040Z,19.70
2018-12-06T13:25:57.151Z,21.00
2018-12-06T13:28:37.739Z,19.63
2018-12-06T13:31:08.262Z,22.07
2018-12-06T13:33:41.806Z,17.20
2018-12-06T13:36:22.192Z,20.13
2018-12-06T13:39:02.216Z,17.60
2018-12-06T13:41:42.195Z,14.77
2018-12-06T13:44:14.559Z,15.83
2018-12-06T13:46:43.563Z,16.27
2018-12-06T13:49:23.863Z,14.87
2018-12-06T13:51:55.311Z,13.43
2018-12-06T13:54:35.635Z,16.80
2018-12-06T13:57:19.524Z,12.37
2018-12-06T13:59:52.243Z,13.20
2018-12-06T14:02:32.586Z,13.47
2018-12-06T14:05:04.371Z,12.30
2018-12-06T14:07:45.159Z,11.63
2018-12-06T14:10:14.574Z,12.33
2018-12-06T14:12:54.803Z,11.67
2018-12-06T14:15:25.300Z,12.07
2018-12-06T14:17:54.431Z,10.83
2018-12-06T14:20:35.078Z,11.57
2018-12-06T14:23:15.907Z,11.83
2018-12-06T14:25:51.309Z,11.30
2018-12-06T14:28:31.438Z,11.53
2018-12-06T14:31:12.227Z,13.10
2018-12-06T14:33:43.655Z,11.73
2018-12-06T14:36:24.220Z,12.03
2018-12-06T14:38:58.289Z,11.70
2018-12-06T14:41:34.359Z,15.10
2018-12-06T14:44:05.580Z,11.03
2018-12-06T14:46:34.414Z,12.13
2018-12-06T14:49:14.640Z,16.73
2018-12-06T14:51:55.402Z,14.30
2018-12-06T14:54:29.486Z,11.87
2018-12-06T14:57:09.939Z,13.90
2018-12-06T14:59:50.665Z,13.17
2018-12-06T15:02:20.504Z,10.23
2018-12-06T15:04:53.789Z,10.23
2018-12-06T15:07:34.060Z,10.57
2018-12-06T15:10:07.753Z,9.90
2018-12-06T15:12:47.907Z,9.87
2018-12-06T15:15:18.460Z,10.23
2018-12-06T15:17:58.983Z,8.93
2018-12-06T15:20:38.999Z,8.07
2018-12-06T15:23:19.042Z,8.77
2018-12-06T15:25:50.147Z,7.77
2018-12-06T15:28:30.504Z,7.53
2018-12-06T15:31:10.395Z,7.73
2018-12-06T15:33:40.942Z,7.97
2018-12-06T15:36:11.974Z,7.93
2018-12-06T15:38:52.407Z,7.67
2018-12-06T15:41:25.644Z,7.60
2018-12-06T15:43:59.547Z,7.40
2018-12-06T15:46:40.176Z,7.20
2018-12-06T15:49:20.059Z,7.73
2018-12-06T15:52:00.121Z,7.50
2018-12-06T15:54:33.465Z,8.10
2018-12-06T15:57:02.531Z,8.03
2018-12-06T15:59:43.048Z,7.90
2018-12-06T16:02:23.120Z,8.00
2018-12-06T16:05:03.324Z,7.97
2018-12-06T16:07:44.163Z,8.33
2018-12-06T16:10:13.392Z,8.37
2018-12-06T16:12:53.820Z,8.07
2018-12-06T16:15:27.903Z,8.40
2018-12-06T16:18:08.781Z,7.77
2018-12-06T16:20:49.563Z,8.60
2018-12-06T16:23:29.514Z,7.93
2018-12-06T16:26:03.563Z,8.40
2018-12-06T16:28:44.215Z,7.83
2018-12-06T16:31:14.733Z,9.33
2018-12-06T16:33:48.555Z,8.50
2018-12-06T16:36:17.447Z,8.70
2018-12-06T16:38:46.513Z,9.83
2018-12-06T16:41:31.843Z,9.50
2018-12-06T16:44:02.936Z,8.37
2018-12-06T16:46:36.399Z,9.07
2018-12-06T16:49:16.976Z,9.47
2018-12-06T16:51:57.685Z,10.23
2018-12-06T16:54:28.256Z,10.30
2018-12-06T16:59:51.827Z,11.73
2018-12-06T17:02:32.079Z,12.23
2018-12-06T17:05:12.796Z,10.60
2018-12-06T17:07:44.060Z,11.50
2018-12-06T17:10:17.619Z,13.23
2018-12-06T17:12:58.176Z,14.47
2018-12-06T17:15:28.788Z,13.53
2018-12-06T17:17:59.831Z,11.90
2018-12-06T17:20:40.228Z,12.80
2018-12-06T17:23:20.195Z,11.17
2018-12-06T17:25:50.833Z,9.90
2018-12-06T17:28:31.167Z,10.30
2018-12-06T17:31:11.991Z,10.30
2018-12-06T17:33:41.439Z,11.80
2018-12-06T17:36:21.716Z,14.53
2018-12-06T17:39:02.568Z,13.30
2018-12-06T17:41:31.667Z,12.57
2018-12-06T17:44:02.741Z,13.17
2018-12-06T17:46:42.767Z,15.70
2018-12-06T17:49:22.790Z,13.77
2018-12-06T17:52:02.819Z,14.03
2018-12-06T17:54:34.283Z,17.70
2018-12-06T17:57:06.330Z,14.27
2018-12-06T17:59:40.004Z,14.40
2018-12-06T18:02:20.782Z,13.03
2018-12-06T18:04:52.166Z,12.17
2018-12-06T18:07:21.056Z,13.33
2018-12-06T18:09:50.087Z,12.13
2018-12-06T18:12:23.943Z,13.10
2018-12-06T18:14:58.936Z,13.43
2018-12-06T18:17:32.854Z,15.97
2018-12-06T18:20:13.439Z,15.43
2018-12-06T18:22:53.384Z,17.07
2018-12-06T18:25:23.940Z,14.47
2018-12-06T18:27:52.948Z,15.03
2018-12-06T18:30:24.079Z,15.07
2018-12-06T18:33:04.219Z,11.87
2018-12-06T18:35:37.595Z,12.07
2018-12-06T18:38:18.071Z,13.53
2018-12-06T18:40:59.951Z,13.47
2018-12-06T18:43:40.827Z,13.47
2018-12-06T18:46:21.690Z,12.63
2018-12-06T18:49:02.527Z,15.97
2018-12-06T18:51:43.241Z,17.03
2018-12-06T18:54:13.824Z,12.47
2018-12-06T18:56:54.388Z,13.23
2018-12-06T18:59:25.721Z,10.83
2018-12-06T19:01:54.645Z,12.47
2018-12-06T19:04:23.735Z,12.47
2018-12-06T19:07:03.965Z,11.97
2018-12-06T19:09:44.751Z,12.63
2018-12-06T19:12:16.631Z,13.90
2018-12-06T19:14:47.343Z,12.17
2018-12-06T19:17:27.761Z,12.47
2018-12-06T19:20:08.614Z,16.57
2018-12-06T19:25:31.979Z,14.50
2018-12-06T19:28:05.670Z,17.47
2018-12-06T19:30:46.336Z,13.57
2018-12-06T19:33:26.800Z,12.17
2018-12-06T19:36:08.751Z,12.33
2018-12-06T19:38:49.358Z,11.43
2018-12-06T19:41:22.751Z,11.20
2018-12-06T19:44:03.187Z,12.37
2018-12-06T19:49:35.950Z,12.20
2018-12-06T19:52:16.030Z,13.00
2018-12-06T19:54:47.323Z,10.53
2018-12-06T19:57:27.671Z,11.73
2018-12-06T19:59:57.067Z,11.30
2018-12-06T20:02:37.219Z,10.60
2018-12-06T20:05:07.780Z,11.93
2018-12-06T20:07:48.140Z,12.47
2018-12-06T20:10:28.971Z,10.43
2018-12-06T20:13:03.171Z,13.37
2018-12-06T20:15:34.199Z,11.07
2018-12-06T20:18:05.132Z,10.97
2018-12-06T20:20:45.292Z,13.07
2018-12-06T20:23:25.939Z,12.90
2018-12-06T20:26:00.116Z,11.50
2018-12-06T20:28:33.797Z,12.30
2018-12-06T20:31:14.335Z,11.13
2018-12-06T20:33:45.803Z,11.97
2018-12-06T20:36:26.275Z,9.80
2018-12-06T20:41:52.460Z,9.37
2018-12-06T20:44:32.808Z,9.87
2018-12-06T20:47:02.227Z,10.20
2018-12-06T20:49:35.801Z,9.87
2018-12-06T20:52:09.684Z,9.97
2018-12-06T20:54:40.801Z,9.33
2018-12-06T20:57:14.471Z,9.00
2018-12-06T20:59:43.496Z,9.20
2018-12-06T21:02:24.006Z,9.20
2018-12-06T21:04:56.725Z,8.93
2018-12-06T21:07:36.999Z,9.93
2018-12-06T21:10:16.999Z,11.87
2018-12-06T21:12:57.008Z,10.00
2018-12-06T21:15:28.418Z,9.43
2018-12-06T21:18:08.803Z,9.30
2018-12-06T21:20:49.650Z,10.00
2018-12-06T21:23:19.069Z,7.83
2018-12-06T21:25:50.096Z,9.43
2018-12-06T21:28:18.919Z,8.70
2018-12-06T21:30:47.815Z,8.80
2018-12-06T21:33:16.872Z,8.23
2018-12-06T21:35:50.712Z,7.53
2018-12-06T21:38:24.432Z,7.30
2018-12-06T21:41:05.128Z,7.60
2018-12-06T21:43:45.831Z,6.87
2018-12-06T21:46:17.095Z,7.00
2018-12-06T21:48:57.435Z,9.00
2018-12-06T21:51:37.417Z,7.33
2018-12-06T21:54:10.789Z,7.37
2018-12-06T21:56:41.860Z,6.80
2018-12-06T21:59:11.067Z,6.90
2018-12-06T22:01:56.247Z,6.83
2018-12-06T22:04:27.424Z,6.27
2018-12-06T22:06:58.543Z,6.87
2018-12-06T22:09:38.904Z,6.40
2018-12-06T22:12:19.757Z,6.77
2018-12-06T22:14:51.048Z,7.40
2018-12-06T22:17:24.648Z,7.70
2018-12-06T22:20:05.048Z,6.60
2018-12-06T22:22:36.419Z,6.57
2018-12-06T22:25:07.238Z,6.73
2018-12-06T22:27:48.288Z,6.93
2018-12-06T22:30:22.000Z,6.53
2018-12-06T22:33:02.424Z,7.13
2018-12-06T22:35:33.819Z,6.33
2018-12-06T22:38:14.302Z,7.80
2018-12-06T22:40:45.917Z,6.00
2018-12-06T22:46:12.208Z,7.37
2018-12-06T22:48:43.371Z,5.70
2018-12-06T22:51:24.446Z,5.27
2018-12-06T22:53:55.873Z,5.13
2018-12-06T22:56:36.261Z,4.97
2018-12-06T22:59:17.261Z,5.03
2018-12-06T23:01:57.312Z,5.43
2018-12-06T23:04:31.628Z,5.03
2018-12-06T23:07:12.009Z,4.80
2018-12-06T23:09:41.335Z,5.17
2018-12-06T23:12:21.647Z,4.37
2018-12-06T23:14:52.154Z,4.83
2018-12-06T23:17:32.636Z,4.63
2018-12-06T23:20:13.226Z,5.20
2018-12-06T23:22:54.065Z,5.57
2018-12-06T23:25:25.567Z,5.37
2018-12-06T23:28:05.706Z,5.03
2018-12-06T23:30:35.115Z,5.70
2018-12-06T23:33:06.031Z,5.33
2018-12-06T23:35:39.887Z,5.13
2018-12-06T23:38:08.904Z,5.90
2018-12-06T23:40:49.028Z,6.13
2018-12-06T23:43:19.657Z,6.00
2018-12-06T23:45:50.595Z,5.57
2018-12-06T23:48:31.130Z,5.03
2018-12-06T23:51:11.951Z,5.40
2018-12-06T23:53:42.471Z,5.20
2018-12-06T23:56:11.367Z,5.27
2018-12-06T23:58:45.272Z,5.70
